createdAt,value
2023-10-05T00:01:26.076Z,70.23
2023-10-05T00:03:53.302Z,70.51
2023-10-05T00:06:25.889Z,70.69
2023-10-05T00:08:54.646Z,70.73
2023-10-05T00:11:29.730Z,71.09
2023-10-05T00:13:58.776Z,71.56
2023-10-05T00:16:38.408Z,71.23
2023-10-05T00:19:10.398Z,71.38
2023-10-05T00:21:37.898Z,71.46
2023-10-05T00:24:07.789Z,71.40
2023-10-05T00:26:35.785Z,69.98
2023-10-05T00:29:05.370Z,70.10
2023-10-05T00:31:34.266Z,70.50
2023-10-05T00:34:00.915Z,71.31
2023-10-05T00:36:32.905Z,72.38
2023-10-05T00:39:02.838Z,73.23
2023-10-05T00:41:29.745Z,72.79
2023-10-05T00:43:56.833Z,72.65
2023-10-05T00:46:24.881Z,72.33
2023-10-05T00:49:09.937Z,72.13
2023-10-05T00:51:37.783Z,72.06
2023-10-05T00:54:12.017Z,71.75
2023-10-05T00:56:41.210Z,70.83
2023-10-05T00:59:11.203Z,70.95
2023-10-05T01:01:58.015Z,70.59
2023-10-05T01:04:27.952Z,71.14
2023-10-05T01:06:57.040Z,71.65
2023-10-05T01:09:27.929Z,71.44
2023-10-05T01:12:14.735Z,71.38
2023-10-05T01:14:52.275Z,71.55
2023-10-05T01:17:27.741Z,70.89
2023-10-05T01:19:57.870Z,70.68
2023-10-05T01:22:25.559Z,71.24
2023-10-05T01:24:52.474Z,72.56
2023-10-05T01:27:20.114Z,73.12
2023-10-05T01:29:46.698Z,72.58
2023-10-05T01:32:15.378Z,73.31
2023-10-05T01:34:42.053Z,73.98
2023-10-05T01:37:12.108Z,74.27
2023-10-05T01:39:44.838Z,74.19
2023-10-05T01:42:12.889Z,73.46
2023-10-05T01:44:48.260Z,72.58
2023-10-05T01:47:18.284Z,72.33
2023-10-05T01:49:46.643Z,72.07
2023-10-05T01:52:18.764Z,71.96
2023-10-05T01:54:45.835Z,72.09
2023-10-05T01:57:14.233Z,70.99
2023-10-05T01:59:41.911Z,70.96
2023-10-05T02:02:11.913Z,70.60
2023-10-05T02:04:44.157Z,70.37
2023-10-05T02:07:13.139Z,70.42
2023-10-05T02:09:39.866Z,70.02
2023-10-05T02:12:08.101Z,69.84
2023-10-05T02:14:37.415Z,70.58
2023-10-05T02:17:05.233Z,71.02
2023-10-05T02:19:31.797Z,71.56
2023-10-05T02:22:03.715Z,72.08
2023-10-05T02:24:31.738Z,72.66
2023-10-05T02:27:01.088Z,73.13
2023-10-05T02:29:29.455Z,73.29
2023-10-05T02:32:02.689Z,73.73
2023-10-05T02:34:51.872Z,73.75
2023-10-05T02:37:21.125Z,73.52
2023-10-05T02:39:49.801Z,73.73
2023-10-05T02:42:19.523Z,73.76
2023-10-05T02:44:46.906Z,72.39
2023-10-05T02:47:15.898Z,72.15
2023-10-05T02:49:46.117Z,71.91
2023-10-05T02:52:15.114Z,72.23
2023-10-05T02:54:41.802Z,71.76
2023-10-05T02:57:14.177Z,71.88
2023-10-05T02:59:44.528Z,71.93
2023-10-05T03:02:20.558Z,71.65
2023-10-05T03:04:50.514Z,71.81
2023-10-05T03:07:21.426Z,72.38
2023-10-05T03:09:52.942Z,71.99
2023-10-05T03:12:22.144Z,72.50
2023-10-05T03:14:53.059Z,73.31
2023-10-05T03:17:27.925Z,73.62
2023-10-05T03:19:55.416Z,73.73
2023-10-05T03:22:25.444Z,73.91
2023-10-05T03:24:55.741Z,73.45
2023-10-05T03:27:23.656Z,73.53
2023-10-05T03:29:53.721Z,72.79
2023-10-05T03:32:20.708Z,72.71
2023-10-05T03:34:56.732Z,73.04
2023-10-05T03:37:23.946Z,72.95
2023-10-05T03:40:06.266Z,72.84
2023-10-05T03:42:33.323Z,72.66
2023-10-05T03:45:04.395Z,72.61
2023-10-05T03:47:32.522Z,72.71
2023-10-05T03:49:59.284Z,72.93
2023-10-05T03:52:33.950Z,72.98
2023-10-05T03:55:11.923Z,72.97
2023-10-05T03:57:42.542Z,73.25
2023-10-05T04:00:23.637Z,73.53
2023-10-05T04:02:55.319Z,73.54
2023-10-05T04:05:23.722Z,74.10
2023-10-05T04:07:52.623Z,74.22
2023-10-05T04:10:24.660Z,74.06
2023-10-05T04:12:53.061Z,74.79
2023-10-05T04:15:21.862Z,74.64
2023-10-05T04:17:51.829Z,74.96
2023-10-05T04:20:20.830Z,74.66
2023-10-05T04:22:49.134Z,74.44
2023-10-05T04:25:17.868Z,74.31
2023-10-05T04:27:49.122Z,74.45
2023-10-05T04:30:22.394Z,74.15
2023-10-05T04:32:49.968Z,74.29
2023-10-05T04:35:29.325Z,74.43
2023-10-05T04:37:58.131Z,74.75
2023-10-05T04:40:26.340Z,75.12
2023-10-05T04:42:53.604Z,75.40
2023-10-05T04:45:22.293Z,75.29
2023-10-05T04:47:50.292Z,76.17
2023-10-05T04:50:18.314Z,75.94
2023-10-05T04:52:51.805Z,75.04
2023-10-05T04:55:32.456Z,74.56
2023-10-05T04:58:19.416Z,74.55
2023-10-05T05:00:46.898Z,74.74
2023-10-05T05:03:39.900Z,75.02
2023-10-05T05:06:12.418Z,74.60
2023-10-05T05:08:42.269Z,74.74
2023-10-05T05:11:20.316Z,73.93
2023-10-05T05:13:52.755Z,74.19
2023-10-05T05:16:20.290Z,74.24
2023-10-05T05:18:47.131Z,74.72
2023-10-05T05:21:13.912Z,74.17
2023-10-05T05:23:41.104Z,74.04
2023-10-05T05:26:11.910Z,74.22
2023-10-05T05:28:38.945Z,74.01
2023-10-05T05:31:08.546Z,74.01
2023-10-05T05:33:39.375Z,74.70
2023-10-05T05:36:09.973Z,74.30
2023-10-05T05:38:36.506Z,74.55
2023-10-05T05:41:21.801Z,75.00
2023-10-05T05:43:48.675Z,75.43
2023-10-05T05:46:15.440Z,75.66
2023-10-05T05:48:44.183Z,74.79
2023-10-05T05:51:16.505Z,74.56
2023-10-05T05:53:44.633Z,74.30
2023-10-05T05:56:18.675Z,74.26
2023-10-05T05:58:46.901Z,73.94
2023-10-05T06:01:22.112Z,73.73
2023-10-05T06:03:50.379Z,74.18
2023-10-05T06:06:17.594Z,74.91
2023-10-05T06:08:45.385Z,74.57
2023-10-05T06:11:13.750Z,74.36
2023-10-05T06:13:41.744Z,74.99
2023-10-05T06:16:11.795Z,75.00
2023-10-05T06:18:38.566Z,74.97
2023-10-05T06:21:06.171Z,74.65
2023-10-05T06:23:34.670Z,74.75
2023-10-05T06:26:02.166Z,75.25
2023-10-05T06:28:28.988Z,75.27
2023-10-05T06:30:58.028Z,75.32
2023-10-05T06:33:25.579Z,75.32
2023-10-05T06:35:52.112Z,75.69
2023-10-05T06:38:18.606Z,75.76
2023-10-05T06:40:45.095Z,75.89
2023-10-05T06:43:12.061Z,76.11
2023-10-05T06:45:44.286Z,75.76
2023-10-05T06:48:10.866Z,75.77
2023-10-05T06:50:38.214Z,75.92
2023-10-05T06:53:04.872Z,75.64
2023-10-05T06:55:31.400Z,75.33
2023-10-05T06:57:58.133Z,74.83
2023-10-05T07:00:24.791Z,75.02
2023-10-05T07:02:54.842Z,74.81
2023-10-05T07:05:21.769Z,75.23
2023-10-05T07:07:48.343Z,75.17
2023-10-05T07:10:16.127Z,75.07
2023-10-05T07:12:47.100Z,74.66
2023-10-05T07:15:19.111Z,74.32
2023-10-05T07:17:47.409Z,74.32
2023-10-05T07:20:14.076Z,73.73
2023-10-05T07:22:41.837Z,73.63
2023-10-05T07:25:10.377Z,73.99
2023-10-05T07:27:36.919Z,73.92
2023-10-05T07:30:08.004Z,73.88
2023-10-05T07:32:37.578Z,73.41
2023-10-05T07:35:06.908Z,72.89
2023-10-05T07:37:37.028Z,73.06
2023-10-05T07:43:00.944Z,72.80
2023-10-05T07:45:27.877Z,72.57
2023-10-05T07:47:54.541Z,72.62
2023-10-05T07:50:21.150Z,72.47
2023-10-05T07:52:49.577Z,72.82
2023-10-05T07:55:16.683Z,72.89
2023-10-05T07:57:44.363Z,73.05
2023-10-05T08:00:14.677Z,73.31
2023-10-05T08:02:42.923Z,73.06
2023-10-05T08:05:10.972Z,72.94
2023-10-05T08:07:37.854Z,73.11
2023-10-05T08:10:06.082Z,72.71
2023-10-05T08:12:32.590Z,72.82
2023-10-05T08:14:59.117Z,73.02
2023-10-05T08:17:25.708Z,72.19
2023-10-05T08:19:52.306Z,71.76
2023-10-05T08:22:18.867Z,71.45
2023-10-05T08:24:45.369Z,71.44
2023-10-05T08:27:15.442Z,71.15
2023-10-05T08:29:43.328Z,71.35
2023-10-05T08:32:17.808Z,71.01
2023-10-05T08:34:46.425Z,70.30
2023-10-05T08:37:13.419Z,69.63
2023-10-05T08:39:40.045Z,69.36
2023-10-05T08:42:09.211Z,69.54
2023-10-05T08:44:40.323Z,69.66
2023-10-05T08:47:12.083Z,69.81
2023-10-05T08:49:39.257Z,70.85
2023-10-05T08:52:15.634Z,70.03
2023-10-05T08:54:46.853Z,68.97
2023-10-05T08:57:15.529Z,67.22
2023-10-05T08:59:48.696Z,67.12
2023-10-05T09:02:23.272Z,66.05
2023-10-05T09:05:01.490Z,65.60
2023-10-05T09:07:41.608Z,65.14
2023-10-05T09:10:16.384Z,64.57
2023-10-05T09:12:43.422Z,63.88
2023-10-05T09:15:29.353Z,63.38
2023-10-05T09:17:55.875Z,63.44
2023-10-05T09:20:24.176Z,62.55
2023-10-05T09:22:54.363Z,62.47
2023-10-05T09:25:28.594Z,62.66
2023-10-05T09:27:58.027Z,61.88
2023-10-05T09:30:31.488Z,61.68
2023-10-05T09:33:07.885Z,61.73
2023-10-05T09:35:34.892Z,60.57
2023-10-05T09:38:01.532Z,60.94
2023-10-05T09:40:30.172Z,60.90
2023-10-05T09:42:57.540Z,59.69
2023-10-05T09:45:30.970Z,60.04
2023-10-05T09:48:01.967Z,58.92
2023-10-05T09:50:30.371Z,56.53
2023-10-05T09:53:00.591Z,56.11
2023-10-05T09:55:31.139Z,54.58
2023-10-05T09:58:08.221Z,53.91
2023-10-05T10:00:37.548Z,54.30
2023-10-05T10:03:07.586Z,53.76
2023-10-05T10:05:45.210Z,53.76
2023-10-05T10:08:24.645Z,53.34
2023-10-05T10:11:10.097Z,52.69
2023-10-05T10:13:40.519Z,52.56
2023-10-05T10:16:24.515Z,52.73
2023-10-05T10:19:05.155Z,53.24
2023-10-05T10:21:47.449Z,52.88
2023-10-05T10:24:19.208Z,52.49
2023-10-05T10:27:10.509Z,53.38
2023-10-05T10:29:57.153Z,51.64
2023-10-05T10:32:33.850Z,51.28
2023-10-05T10:35:11.306Z,48.40
2023-10-05T10:37:40.696Z,48.63
2023-10-05T10:40:21.508Z,48.43
2023-10-05T10:42:52.424Z,47.67
2023-10-05T10:45:29.460Z,45.04
2023-10-05T10:47:59.365Z,46.49
2023-10-05T10:50:32.408Z,47.95
2023-10-05T10:53:00.036Z,48.48
2023-10-05T10:55:38.006Z,47.86
2023-10-05T10:58:09.538Z,48.56
2023-10-05T11:00:55.654Z,50.06
2023-10-05T11:03:27.865Z,49.21
2023-10-05T11:05:59.290Z,48.57
2023-10-05T11:08:31.744Z,48.33
2023-10-05T11:11:00.520Z,49.00
2023-10-05T11:13:28.519Z,48.81
2023-10-05T11:16:01.248Z,49.40
2023-10-05T11:18:32.009Z,50.05
2023-10-05T11:21:17.177Z,49.52
2023-10-05T11:23:48.446Z,49.45
2023-10-05T11:26:19.682Z,49.53
2023-10-05T11:28:50.157Z,49.69
2023-10-05T11:31:42.002Z,49.60
2023-10-05T11:35:12.963Z,50.16
2023-10-05T11:36:59.775Z,49.93
2023-10-05T11:39:28.655Z,50.37
2023-10-05T11:41:58.028Z,51.10
2023-10-05T11:44:25.756Z,50.26
2023-10-05T11:46:56.067Z,49.26
2023-10-05T11:49:32.398Z,50.53
2023-10-05T11:52:00.338Z,50.17
2023-10-05T11:54:31.567Z,50.23
2023-10-05T11:56:59.874Z,49.74
2023-10-05T11:59:32.740Z,50.14
2023-10-05T12:01:59.388Z,49.30
2023-10-05T12:04:27.696Z,49.45
2023-10-05T12:07:00.725Z,48.81
2023-10-05T12:09:34.964Z,46.97
2023-10-05T12:12:04.269Z,47.78
2023-10-05T12:14:31.155Z,47.86
2023-10-05T12:16:58.450Z,46.78
2023-10-05T12:19:31.708Z,45.87
2023-10-05T12:22:07.291Z,45.80
2023-10-05T12:24:35.098Z,44.54
2023-10-05T12:27:14.472Z,45.27
2023-10-05T12:29:46.316Z,45.89
2023-10-05T12:32:14.815Z,45.13
2023-10-05T12:34:49.077Z,45.05
2023-10-05T12:37:19.055Z,44.64
2023-10-05T12:39:46.876Z,45.12
2023-10-05T12:42:13.475Z,44.85
2023-10-05T12:44:40.559Z,44.16
2023-10-05T12:47:09.990Z,44.17
2023-10-05T12:49:36.778Z,44.98
2023-10-05T12:52:03.623Z,45.01
2023-10-05T12:54:30.282Z,46.17
2023-10-05T12:57:13.240Z,46.91
2023-10-05T12:59:44.675Z,47.78
2023-10-05T13:02:17.555Z,48.65
2023-10-05T13:04:44.394Z,49.03
2023-10-05T13:07:11.026Z,49.27
2023-10-05T13:09:39.411Z,48.81
2023-10-05T13:12:13.512Z,48.11
2023-10-05T13:14:40.652Z,48.25
2023-10-05T13:17:13.185Z,47.36
2023-10-05T13:19:40.714Z,47.81
2023-10-05T13:22:07.613Z,47.40
2023-10-05T13:24:35.192Z,48.13
2023-10-05T13:27:02.612Z,48.05
2023-10-05T13:29:29.357Z,48.19
2023-10-05T13:31:57.958Z,47.99
2023-10-05T13:34:28.817Z,47.72
2023-10-05T13:36:55.907Z,48.00
2023-10-05T13:39:22.720Z,47.90
2023-10-05T13:42:01.319Z,47.39
2023-10-05T13:44:28.899Z,46.21
2023-10-05T13:46:56.359Z,46.42
2023-10-05T13:49:29.490Z,47.29
2023-10-05T13:51:56.127Z,47.55
2023-10-05T13:54:24.703Z,48.31
2023-10-05T13:56:51.227Z,48.78
2023-10-05T13:59:22.742Z,48.91
2023-10-05T14:01:54.081Z,48.66
2023-10-05T14:04:22.108Z,49.01
2023-10-05T14:06:50.214Z,48.67
2023-10-05T14:09:17.542Z,47.67
2023-10-05T14:11:44.387Z,46.75
2023-10-05T14:14:12.337Z,46.05
2023-10-05T14:16:54.235Z,46.74
2023-10-05T14:19:27.335Z,45.69
2023-10-05T14:21:54.321Z,46.10
2023-10-05T14:24:22.296Z,45.08
2023-10-05T14:26:55.250Z,45.27
2023-10-05T14:29:27.256Z,46.12
2023-10-05T14:31:57.103Z,46.16
2023-10-05T14:34:23.712Z,46.50
2023-10-05T14:36:53.984Z,47.42
2023-10-05T14:39:24.013Z,46.72
2023-10-05T14:41:55.709Z,47.36
2023-10-05T14:44:22.501Z,48.60
2023-10-05T14:46:51.417Z,48.68
2023-10-05T14:49:23.109Z,47.88
2023-10-05T14:51:53.602Z,48.98
2023-10-05T14:54:23.326Z,47.48
2023-10-05T14:56:50.875Z,47.22
2023-10-05T14:59:17.836Z,47.94
2023-10-05T15:01:44.945Z,47.96
2023-10-05T15:04:12.449Z,47.33
2023-10-05T15:06:39.604Z,45.73
2023-10-05T15:09:06.767Z,43.72
2023-10-05T15:11:33.617Z,45.24
2023-10-05T15:14:00.722Z,45.00
2023-10-05T15:16:28.706Z,45.38
2023-10-05T15:18:55.883Z,44.94
2023-10-05T15:21:23.807Z,45.57
2023-10-05T15:23:50.311Z,45.72
2023-10-05T15:26:18.196Z,45.34
2023-10-05T15:28:45.226Z,45.23
2023-10-05T15:31:12.222Z,44.80
2023-10-05T15:33:38.973Z,44.86
2023-10-05T15:36:06.171Z,45.52
2023-10-05T15:38:35.214Z,45.80
2023-10-05T15:41:04.920Z,46.81
2023-10-05T15:43:32.614Z,46.62
2023-10-05T15:46:01.563Z,47.25
2023-10-05T15:48:28.785Z,47.16
2023-10-05T15:50:56.691Z,47.65
2023-10-05T15:53:23.226Z,48.09
2023-10-05T15:55:49.875Z,48.18
2023-10-05T15:58:17.374Z,48.02
2023-10-05T16:00:44.409Z,48.50
2023-10-05T16:03:12.286Z,48.59
2023-10-05T16:05:40.712Z,48.77
2023-10-05T16:08:08.518Z,49.12
2023-10-05T16:10:39.338Z,48.79
2023-10-05T16:13:10.011Z,50.01
2023-10-05T16:15:37.665Z,49.90
2023-10-05T16:18:04.787Z,50.55
2023-10-05T16:20:33.003Z,51.10
2023-10-05T16:23:08.312Z,51.28
2023-10-05T16:25:37.791Z,50.83
2023-10-05T16:28:07.076Z,50.80
2023-10-05T16:30:33.718Z,50.77
2023-10-05T16:33:01.644Z,50.84
2023-10-05T16:35:29.002Z,50.75
2023-10-05T16:37:55.745Z,52.13
2023-10-05T16:40:25.905Z,52.77
2023-10-05T16:42:53.849Z,53.29
2023-10-05T16:45:22.669Z,53.90
2023-10-05T16:47:51.589Z,54.20
2023-10-05T16:50:22.869Z,54.37
2023-10-05T16:52:51.170Z,55.17
2023-10-05T16:55:21.492Z,55.00
2023-10-05T16:57:51.637Z,55.25
2023-10-05T17:00:25.284Z,55.63
2023-10-05T17:02:55.381Z,56.30
2023-10-05T17:05:24.401Z,56.18
2023-10-05T17:07:52.559Z,56.54
2023-10-05T17:10:19.500Z,56.89
2023-10-05T17:12:46.983Z,57.42
2023-10-05T17:15:17.637Z,57.63
2023-10-05T17:17:45.055Z,58.20
2023-10-05T17:20:12.198Z,58.86
2023-10-05T17:22:39.548Z,58.67
2023-10-05T17:25:08.818Z,59.22
2023-10-05T17:27:35.692Z,59.39
2023-10-05T17:30:03.136Z,59.67
2023-10-05T17:32:31.324Z,60.10
2023-10-05T17:34:58.199Z,60.23
2023-10-05T17:37:29.002Z,60.45
2023-10-05T17:39:57.178Z,60.50
2023-10-05T17:42:23.946Z,61.01
2023-10-05T17:44:51.940Z,61.32
2023-10-05T17:47:18.693Z,61.58
2023-10-05T17:49:45.376Z,61.76
2023-10-05T17:52:12.206Z,61.70
2023-10-05T17:54:38.763Z,61.91
2023-10-05T17:57:10.841Z,62.17
2023-10-05T17:59:41.799Z,62.22
2023-10-05T18:02:08.644Z,62.46
2023-10-05T18:04:35.460Z,62.89
2023-10-05T18:07:02.949Z,63.07
2023-10-05T18:09:29.499Z,63.06
2023-10-05T18:11:57.267Z,63.42
2023-10-05T18:14:24.588Z,63.66
2023-10-05T18:16:52.813Z,64.14
2023-10-05T18:19:20.669Z,64.14
2023-10-05T18:21:49.115Z,64.53
2023-10-05T18:24:16.104Z,64.48
2023-10-05T18:26:50.410Z,64.68
2023-10-05T18:29:18.006Z,65.07
2023-10-05T18:31:45.016Z,65.10
2023-10-05T18:34:11.757Z,65.01
2023-10-05T18:36:38.256Z,64.99
2023-10-05T18:39:04.791Z,65.38
2023-10-05T18:41:31.375Z,65.17
2023-10-05T18:43:58.064Z,64.99
2023-10-05T18:46:24.791Z,65.20
2023-10-05T18:48:51.889Z,65.19
2023-10-05T18:51:18.517Z,65.24
2023-10-05T18:53:45.089Z,65.14
2023-10-05T18:56:12.059Z,65.28
2023-10-05T18:58:39.772Z,64.92
2023-10-05T19:01:07.365Z,64.99
2023-10-05T19:03:39.738Z,65.35
2023-10-05T19:06:08.164Z,65.35
2023-10-05T19:08:34.847Z,65.23
2023-10-05T19:11:05.628Z,64.94
2023-10-05T19:13:34.620Z,65.43
2023-10-05T19:16:01.306Z,65.34
2023-10-05T19:18:29.903Z,65.57
2023-10-05T19:20:58.327Z,65.70
2023-10-05T19:23:24.836Z,65.86
2023-10-05T19:25:59.466Z,65.98
2023-10-05T19:28:26.110Z,66.57
2023-10-05T19:30:52.780Z,66.33
2023-10-05T19:33:20.331Z,66.51
2023-10-05T19:35:47.891Z,66.53
2023-10-05T19:38:14.499Z,66.43
2023-10-05T19:40:41.162Z,66.52
2023-10-05T19:43:07.719Z,66.51
2023-10-05T19:45:34.271Z,66.61
2023-10-05T19:48:00.838Z,66.03
2023-10-05T19:50:27.292Z,66.25
2023-10-05T19:52:54.301Z,66.51
2023-10-05T19:55:20.836Z,66.56
2023-10-05T19:57:47.366Z,65.98
2023-10-05T20:00:14.736Z,66.45
2023-10-05T20:02:41.415Z,66.85
2023-10-05T20:05:09.212Z,66.50
2023-10-05T20:07:35.891Z,66.68
2023-10-05T20:10:03.774Z,67.21
2023-10-05T20:12:30.303Z,67.26
2023-10-05T20:14:57.327Z,67.54
2023-10-05T20:17:23.913Z,68.36
2023-10-05T20:19:52.413Z,68.84
2023-10-05T20:22:18.955Z,69.21
2023-10-05T20:24:45.454Z,69.26
2023-10-05T20:27:16.783Z,68.86
2023-10-05T20:29:44.340Z,67.54
2023-10-05T20:32:13.490Z,67.65
2023-10-05T20:34:43.580Z,67.55
2023-10-05T20:37:10.790Z,67.27
2023-10-05T20:39:37.623Z,67.62
2023-10-05T20:42:05.143Z,67.57
2023-10-05T20:44:31.816Z,67.59
2023-10-05T20:47:00.876Z,67.79
2023-10-05T20:49:34.908Z,67.89
2023-10-05T20:52:01.923Z,67.41
2023-10-05T20:54:28.606Z,66.96
2023-10-05T20:56:55.105Z,67.00
2023-10-05T20:59:27.438Z,67.63
2023-10-05T21:01:54.030Z,68.29
2023-10-05T21:04:20.585Z,68.49
2023-10-05T21:06:47.086Z,68.41
2023-10-05T21:09:13.590Z,68.50
2023-10-05T21:11:40.100Z,69.17
2023-10-05T21:14:06.783Z,68.88
2023-10-05T21:16:33.493Z,68.54
2023-10-05T21:19:00.101Z,68.23
2023-10-05T21:21:26.580Z,67.64
2023-10-05T21:23:53.160Z,67.79
2023-10-05T21:26:19.644Z,68.17
2023-10-05T21:28:46.473Z,68.13
2023-10-05T21:31:13.675Z,68.16
2023-10-05T21:33:40.416Z,67.99
2023-10-05T21:36:07.742Z,68.34
2023-10-05T21:38:35.000Z,68.37
2023-10-05T21:41:01.808Z,68.28
2023-10-05T21:43:28.564Z,68.96
2023-10-05T21:45:55.115Z,68.69
2023-10-05T21:48:21.795Z,68.30
2023-10-05T21:50:49.268Z,68.06
2023-10-05T21:53:17.611Z,68.68
2023-10-05T21:55:44.716Z,68.87
2023-10-05T21:58:11.649Z,68.93
2023-10-05T22:00:40.789Z,68.75
2023-10-05T22:03:08.797Z,68.76
2023-10-05T22:05:39.078Z,68.64
2023-10-05T22:08:09.421Z,68.70
2023-10-05T22:10:36.533Z,68.91
2023-10-05T22:13:10.403Z,68.75
2023-10-05T22:15:37.800Z,68.77
2023-10-05T22:18:08.049Z,69.17
2023-10-05T22:20:34.981Z,69.40
2023-10-05T22:23:05.236Z,69.24
2023-10-05T22:25:36.766Z,69.58
2023-10-05T22:28:04.586Z,70.21
2023-10-05T22:30:31.456Z,70.18
2023-10-05T22:32:58.052Z,69.87
2023-10-05T22:35:24.559Z,69.98
2023-10-05T22:37:51.120Z,69.26
2023-10-05T22:40:18.687Z,69.21
2023-10-05T22:42:46.257Z,69.09
2023-10-05T22:45:12.930Z,69.50
2023-10-05T22:47:39.475Z,69.47
2023-10-05T22:50:06.301Z,69.41
2023-10-05T22:52:32.927Z,69.22
2023-10-05T22:54:59.566Z,69.23
2023-10-05T22:57:26.725Z,69.68
2023-10-05T22:59:53.354Z,69.57
2023-10-05T23:02:19.866Z,69.49
2023-10-05T23:04:46.586Z,69.21
2023-10-05T23:07:13.151Z,69.23
2023-10-05T23:09:40.513Z,68.94
2023-10-05T23:12:11.574Z,69.56
2023-10-05T23:14:38.953Z,69.68
2023-10-05T23:17:09.314Z,69.71
2023-10-05T23:19:37.166Z,69.85
2023-10-05T23:22:05.805Z,69.63
2023-10-05T23:24:35.343Z,70.41
2023-10-05T23:27:05.031Z,71.26
2023-10-05T23:29:32.444Z,71.82
2023-10-05T23:32:00.211Z,71.51
2023-10-05T23:34:36.611Z,71.16
2023-10-05T23:37:05.532Z,70.87
2023-10-05T23:39:32.789Z,69.79
2023-10-05T23:42:06.623Z,69.95
2023-10-05T23:44:33.114Z,69.00
2023-10-05T23:47:21.490Z,69.54
2023-10-05T23:49:48.816Z,68.91
2023-10-05T23:52:16.272Z,69.33
2023-10-05T23:54:43.168Z,69.46
2023-10-05T23:57:20.962Z,69.42
2023-10-05T23:59:48.787Z,69.79
